createdAt,value
2019-06-10T19:30:23.287Z,2.50
2019-06-10T19:33:12.728Z,2.37
2019-06-10T19:36:02.794Z,2.70
2019-06-10T19:38:50.432Z,2.20
2019-06-10T19:41:38.756Z,2.07
2019-06-10T19:44:26.586Z,2.20
2019-06-10T19:47:14.633Z,2.17
2019-06-10T19:50:03.011Z,2.10
2019-06-10T19:52:52.020Z,1.67
2019-06-10T19:55:39.548Z,1.93
2019-06-10T19:58:32.368Z,1.70
2019-06-10T20:01:19.720Z,1.80
2019-06-10T20:04:07.173Z,2.00
2019-06-10T20:06:54.671Z,1.90
2019-06-10T20:09:45.116Z,1.70
2019-06-10T20:12:34.201Z,1.80
2019-06-10T20:15:22.898Z,1.60
2019-06-10T20:18:12.277Z,1.57
2019-06-10T20:20:59.433Z,1.80
2019-06-10T20:23:47.839Z,2.30
2019-06-10T20:26:36.654Z,1.60
2019-06-10T20:29:24.234Z,1.80
2019-06-10T20:32:14.016Z,1.50
2019-06-10T20:35:02.972Z,1.40
2019-06-10T20:37:50.723Z,1.60
2019-06-10T20:40:38.241Z,1.90
2019-06-10T20:43:25.510Z,1.60
2019-06-10T20:46:13.312Z,1.80
2019-06-10T20:49:03.455Z,2.20
2019-06-10T20:52:07.081Z,1.63
2019-06-10T20:54:42.966Z,2.00
2019-06-10T20:57:29.125Z,2.20
2019-06-10T21:00:33.747Z,2.10
2019-06-10T21:03:23.149Z,1.80
2019-06-10T21:06:13.014Z,2.23
2019-06-10T21:09:02.928Z,2.07
2019-06-10T21:11:51.912Z,1.50
2019-06-10T21:14:39.809Z,1.70
2019-06-10T21:17:29.296Z,1.70
2019-06-10T21:20:16.761Z,1.80
2019-06-10T21:23:04.545Z,1.80
2019-06-10T21:25:52.507Z,1.80
2019-06-10T21:28:41.361Z,1.50
2019-06-10T21:31:29.657Z,1.80
2019-06-10T21:34:17.374Z,1.70
2019-06-10T21:37:04.773Z,1.90
2019-06-10T21:39:55.397Z,2.00
2019-06-10T21:42:41.685Z,1.87
2019-06-10T21:45:29.358Z,2.00
2019-06-10T21:48:17.152Z,1.97
2019-06-10T21:51:04.386Z,2.40
2019-06-10T21:53:53.798Z,1.90
2019-06-10T21:56:42.758Z,1.70
2019-06-10T21:59:32.051Z,1.57
2019-06-10T22:02:18.984Z,1.60
2019-06-10T22:05:06.641Z,1.77
2019-06-10T22:07:56.391Z,1.47
2019-06-10T22:10:44.200Z,1.80
2019-06-10T22:13:32.874Z,1.70
2019-06-10T22:16:22.551Z,1.60
2019-06-10T22:19:09.425Z,1.50
2019-06-10T22:21:56.893Z,2.00
2019-06-10T22:24:45.100Z,1.80
2019-06-10T22:27:34.629Z,1.93
2019-06-10T22:30:22.940Z,1.60
2019-06-10T22:33:12.410Z,1.67
2019-06-10T22:36:02.346Z,1.77
2019-06-10T22:38:49.835Z,1.60
2019-06-10T22:41:37.097Z,1.80
2019-06-10T22:44:24.445Z,2.27
2019-06-10T22:47:12.253Z,1.80
2019-06-10T22:50:06.318Z,1.60
2019-06-10T22:52:51.911Z,1.90
2019-06-10T22:55:39.246Z,1.90
2019-06-10T22:58:26.836Z,1.97
2019-06-10T23:01:14.319Z,1.70
2019-06-10T23:04:03.765Z,1.60
2019-06-10T23:06:53.043Z,1.30
2019-06-10T23:09:42.687Z,1.30
2019-06-10T23:12:29.185Z,1.20
2019-06-10T23:15:16.919Z,1.00
2019-06-10T23:18:04.261Z,1.30
2019-06-10T23:20:55.759Z,0.90
2019-06-10T23:23:43.136Z,1.03
2019-06-10T23:26:30.025Z,1.10
2019-06-10T23:29:17.279Z,1.13
2019-06-10T23:32:07.093Z,1.03
2019-06-10T23:34:57.556Z,1.20
2019-06-10T23:37:45.489Z,1.00
2019-06-10T23:40:32.965Z,0.90
2019-06-10T23:43:22.439Z,1.00
2019-06-10T23:46:09.223Z,1.10
2019-06-10T23:48:57.466Z,0.70
2019-06-10T23:51:45.269Z,0.80
2019-06-10T23:54:32.384Z,1.03
2019-06-10T23:57:22.224Z,0.90
